createdAt,value
2023-05-08T00:02:16.826Z,102081.00
2023-05-08T00:04:43.543Z,102086.22
2023-05-08T00:07:11.011Z,102095.41
2023-05-08T00:09:37.933Z,102087.88
2023-05-08T00:12:04.981Z,102087.25
2023-05-08T00:14:32.729Z,102092.31
2023-05-08T00:16:59.474Z,102090.97
2023-05-08T00:19:26.127Z,102096.16
2023-05-08T00:21:56.843Z,102090.38
2023-05-08T00:24:23.577Z,102104.50
2023-05-08T00:26:50.372Z,102097.94
2023-05-08T00:29:16.997Z,102104.38
2023-05-08T00:31:43.648Z,102095.78
2023-05-08T00:34:10.316Z,102101.59
2023-05-08T00:36:36.922Z,102096.59
2023-05-08T00:39:05.833Z,102097.03
2023-05-08T00:41:32.443Z,102104.16
2023-05-08T00:43:59.225Z,102103.44
2023-05-08T00:46:26.150Z,102108.91
2023-05-08T00:48:53.536Z,102107.94
2023-05-08T00:51:20.843Z,102115.97
2023-05-08T00:53:47.641Z,102107.94
2023-05-08T00:56:17.001Z,102110.47
2023-05-08T00:58:45.713Z,102111.91
2023-05-08T01:01:12.577Z,102110.50
2023-05-08T01:03:39.756Z,102104.84
2023-05-08T01:06:07.130Z,102107.34
2023-05-08T01:08:34.052Z,102106.19
2023-05-08T01:11:25.071Z,102109.81
2023-05-08T01:14:11.310Z,102108.06
2023-05-08T01:16:43.752Z,102118.16
2023-05-08T01:19:47.215Z,102115.16
2023-05-08T01:22:51.030Z,102116.16
2023-05-08T01:25:49.290Z,102112.81
2023-05-08T01:28:28.923Z,102112.09
2023-05-08T01:31:05.178Z,102116.59
2023-05-08T01:34:10.627Z,102123.34
2023-05-08T01:37:04.411Z,102111.47
2023-05-08T01:39:57.476Z,102116.50
2023-05-08T01:42:27.194Z,102110.81
2023-05-08T01:45:17.326Z,102119.03
2023-05-08T01:47:50.099Z,102124.75
2023-05-08T01:50:25.809Z,102118.84
2023-05-08T01:53:03.453Z,102112.91
2023-05-08T01:55:34.695Z,102118.06
2023-05-08T01:58:04.405Z,102119.75
2023-05-08T02:00:31.860Z,102119.88
2023-05-08T02:02:59.354Z,102112.09
2023-05-08T02:05:27.742Z,102116.00
2023-05-08T02:07:55.472Z,102108.31
2023-05-08T02:10:24.943Z,102115.13
2023-05-08T02:12:53.808Z,102115.34
2023-05-08T02:15:22.063Z,102117.28
2023-05-08T02:17:50.840Z,102114.75
2023-05-08T02:20:20.228Z,102118.06
2023-05-08T02:22:50.265Z,102118.78
2023-05-08T02:25:17.896Z,102111.16
2023-05-08T02:27:47.564Z,102124.41
2023-05-08T02:30:16.356Z,102112.91
2023-05-08T02:32:45.176Z,102111.16
2023-05-08T02:35:20.163Z,102116.47
2023-05-08T02:37:52.820Z,102112.81
2023-05-08T02:40:22.375Z,102122.09
2023-05-08T02:42:49.749Z,102110.38
2023-05-08T02:45:16.791Z,102115.59
2023-05-08T02:48:07.879Z,102116.50
2023-05-08T02:50:51.748Z,102112.81
2023-05-08T02:53:25.736Z,102115.50
2023-05-08T02:55:58.162Z,102111.59
2023-05-08T02:58:49.384Z,102119.91
2023-05-08T03:01:30.216Z,102112.44
2023-05-08T03:04:04.532Z,102114.22
2023-05-08T03:06:38.882Z,102120.56
2023-05-08T03:09:07.067Z,102122.91
2023-05-08T03:11:40.565Z,102121.31
2023-05-08T03:14:11.654Z,102122.66
2023-05-08T03:16:41.619Z,102117.91
2023-05-08T03:19:18.655Z,102119.78
2023-05-08T03:21:46.883Z,102125.97
2023-05-08T03:24:17.634Z,102119.44
2023-05-08T03:26:46.112Z,102121.56
2023-05-08T03:29:14.718Z,102128.72
2023-05-08T03:31:43.905Z,102129.81
2023-05-08T03:34:13.301Z,102125.41
2023-05-08T03:36:40.755Z,102135.03
2023-05-08T03:39:07.816Z,102127.06
2023-05-08T03:41:34.754Z,102130.63
2023-05-08T03:44:03.580Z,102135.63
2023-05-08T03:46:32.127Z,102122.06
2023-05-08T03:49:00.495Z,102127.31
2023-05-08T03:51:28.517Z,102125.50
2023-05-08T03:53:55.226Z,102131.69
2023-05-08T03:56:23.077Z,102126.50
2023-05-08T03:59:00.712Z,102126.31
2023-05-08T04:01:46.727Z,102123.91
2023-05-08T04:04:33.847Z,102118.53
2023-05-08T04:07:10.664Z,102125.09
2023-05-08T04:09:54.036Z,102124.31
2023-05-08T04:12:32.027Z,102130.72
2023-05-08T04:15:09.176Z,102131.53
2023-05-08T04:17:39.153Z,102123.69
2023-05-08T04:20:12.310Z,102123.66
2023-05-08T04:22:41.061Z,102123.63
2023-05-08T04:25:10.653Z,102129.22
2023-05-08T04:27:38.609Z,102128.97
2023-05-08T04:30:06.111Z,102131.97
2023-05-08T04:32:35.400Z,102134.94
2023-05-08T04:35:03.587Z,102143.16
2023-05-08T04:37:34.031Z,102136.66
2023-05-08T04:40:01.367Z,102152.50
2023-05-08T04:42:28.314Z,102145.84
2023-05-08T04:44:55.254Z,102149.34
2023-05-08T04:47:22.225Z,102154.25
2023-05-08T04:49:49.020Z,102153.41
2023-05-08T04:52:16.022Z,102165.38
2023-05-08T04:54:42.785Z,102167.66
2023-05-08T04:57:09.836Z,102170.13
2023-05-08T04:59:36.499Z,102172.50
2023-05-08T05:02:03.734Z,102171.97
2023-05-08T05:04:30.417Z,102166.97
2023-05-08T05:06:57.593Z,102169.75
2023-05-08T05:09:25.494Z,102177.06
2023-05-08T05:11:52.441Z,102187.31
2023-05-08T05:14:19.327Z,102193.09
2023-05-08T05:16:46.531Z,102208.31
2023-05-08T05:19:13.886Z,102193.22
2023-05-08T05:21:41.166Z,102192.31
2023-05-08T05:24:08.087Z,102191.03
2023-05-08T05:26:36.391Z,102204.94
2023-05-08T05:29:03.609Z,102201.28
2023-05-08T05:31:30.923Z,102200.56
2023-05-08T05:33:57.894Z,102207.78
2023-05-08T05:36:24.540Z,102205.06
2023-05-08T05:38:51.457Z,102212.25
2023-05-08T05:41:18.189Z,102204.81
2023-05-08T05:43:44.764Z,102204.38
2023-05-08T05:46:11.550Z,102200.66
2023-05-08T05:48:38.173Z,102212.44
2023-05-08T05:51:04.829Z,102219.28
2023-05-08T05:53:34.211Z,102211.16
2023-05-08T05:56:00.909Z,102215.63
2023-05-08T05:58:28.712Z,102212.06
2023-05-08T06:00:58.294Z,102213.06
2023-05-08T06:03:33.457Z,102214.78
2023-05-08T06:06:00.159Z,102219.16
2023-05-08T06:08:36.213Z,102209.84
2023-05-08T06:11:07.031Z,102220.28
2023-05-08T06:13:33.829Z,102221.25
2023-05-08T06:16:08.554Z,102212.91
2023-05-08T06:18:35.249Z,102221.28
2023-05-08T06:21:02.072Z,102225.69
2023-05-08T06:23:28.666Z,102219.94
2023-05-08T06:25:55.488Z,102218.75
2023-05-08T06:28:28.521Z,102223.94
2023-05-08T06:30:58.313Z,102223.06
2023-05-08T06:33:26.779Z,102222.91
2023-05-08T06:35:56.648Z,102223.56
2023-05-08T06:38:26.122Z,102220.53
2023-05-08T06:40:55.845Z,102229.09
2023-05-08T06:43:22.642Z,102225.16
2023-05-08T06:45:59.258Z,102227.69
2023-05-08T06:48:36.241Z,102237.34
2023-05-08T06:51:03.773Z,102233.94
2023-05-08T06:53:37.008Z,102234.72
2023-05-08T06:56:03.708Z,102235.34
2023-05-08T06:58:32.216Z,102229.41
2023-05-08T07:01:04.688Z,102230.94
2023-05-08T07:03:31.829Z,102236.00
2023-05-08T07:05:58.676Z,102237.59
2023-05-08T07:08:44.508Z,102242.81
2023-05-08T07:11:11.191Z,102237.13
2023-05-08T07:13:50.244Z,102235.59
2023-05-08T07:16:17.377Z,102238.66
2023-05-08T07:18:44.351Z,102234.09
2023-05-08T07:21:11.430Z,102241.41
2023-05-08T07:23:38.036Z,102236.66
2023-05-08T07:26:25.520Z,102231.72
2023-05-08T07:28:59.878Z,102234.91
2023-05-08T07:31:27.215Z,102233.63
2023-05-08T07:33:54.052Z,102236.50
2023-05-08T07:36:20.760Z,102245.78
2023-05-08T07:38:47.709Z,102233.50
2023-05-08T07:41:17.585Z,102237.88
2023-05-08T07:43:45.580Z,102229.91
2023-05-08T07:46:19.437Z,102224.22
2023-05-08T07:48:46.132Z,102226.41
2023-05-08T07:51:23.187Z,102225.06
2023-05-08T07:53:51.158Z,102229.00
2023-05-08T07:56:18.050Z,102235.78
2023-05-08T07:58:46.058Z,102228.69
2023-05-08T08:01:15.231Z,102231.00
2023-05-08T08:04:00.229Z,102229.28
2023-05-08T08:06:29.692Z,102223.16
2023-05-08T08:09:04.384Z,102238.19
2023-05-08T08:11:32.890Z,102230.78
2023-05-08T08:13:59.820Z,102241.75
2023-05-08T08:16:27.055Z,102234.41
2023-05-08T08:18:59.896Z,102229.25
2023-05-08T08:21:29.924Z,102229.25
2023-05-08T08:23:56.916Z,102231.66
2023-05-08T08:26:23.639Z,102226.69
2023-05-08T08:28:50.622Z,102229.94
2023-05-08T08:31:17.615Z,102233.25
2023-05-08T08:33:44.555Z,102233.41
2023-05-08T08:36:15.564Z,102239.72
2023-05-08T08:38:42.541Z,102226.25
2023-05-08T08:41:09.224Z,102228.56
2023-05-08T08:43:36.012Z,102230.03
2023-05-08T08:46:12.317Z,102217.78
2023-05-08T08:48:45.038Z,102229.38
2023-05-08T08:51:18.568Z,102227.78
2023-05-08T08:53:48.378Z,102219.38
2023-05-08T08:56:16.844Z,102214.28
2023-05-08T08:58:56.985Z,102210.41
2023-05-08T09:01:24.882Z,102211.38
2023-05-08T09:03:51.615Z,102222.66
2023-05-08T09:06:19.790Z,102208.97
2023-05-08T09:08:47.383Z,102213.31
2023-05-08T09:11:14.233Z,102211.00
2023-05-08T09:13:40.884Z,102223.47
2023-05-08T09:16:07.773Z,102217.16
2023-05-08T09:18:34.515Z,102230.13
2023-05-08T09:21:01.897Z,102218.69
2023-05-08T09:23:28.834Z,102222.09
2023-05-08T09:25:55.462Z,102221.91
2023-05-08T09:28:24.231Z,102224.25
2023-05-08T09:30:55.118Z,102223.09
2023-05-08T09:33:25.596Z,102213.69
2023-05-08T09:35:52.931Z,102212.50
2023-05-08T09:38:40.005Z,102217.19
2023-05-08T09:41:06.675Z,102217.81
2023-05-08T09:43:33.244Z,102218.69
2023-05-08T09:46:19.933Z,102208.56
2023-05-08T09:48:46.625Z,102230.47
2023-05-08T09:51:13.503Z,102206.38
2023-05-08T09:53:42.432Z,102203.00
2023-05-08T09:56:09.753Z,102205.97
2023-05-08T09:58:43.882Z,102202.22
2023-05-08T10:01:46.567Z,102205.81
2023-05-08T10:04:13.198Z,102205.19
2023-05-08T10:06:39.882Z,102219.34
2023-05-08T10:09:08.160Z,102207.00
2023-05-08T10:11:34.797Z,102201.56
2023-05-08T10:14:01.360Z,102195.00
2023-05-08T10:16:29.866Z,102207.63
2023-05-08T10:19:02.331Z,102204.19
2023-05-08T10:21:30.182Z,102198.56
2023-05-08T10:24:01.146Z,102192.47
2023-05-08T10:26:31.511Z,102192.63
2023-05-08T10:29:21.223Z,102201.28
2023-05-08T10:31:54.345Z,102180.31
2023-05-08T10:34:22.794Z,102192.59
2023-05-08T10:36:54.178Z,102191.31
2023-05-08T10:39:21.810Z,102179.34
2023-05-08T10:41:49.537Z,102174.47
2023-05-08T10:44:16.591Z,102189.47
2023-05-08T10:46:46.865Z,102183.16
2023-05-08T10:49:34.292Z,102172.47
2023-05-08T10:52:12.970Z,102169.09
2023-05-08T10:55:04.476Z,102167.91
2023-05-08T10:57:32.156Z,102158.16
2023-05-08T10:59:58.816Z,102171.44
2023-05-08T11:02:31.575Z,102165.19
2023-05-08T11:05:17.741Z,102163.63
2023-05-08T11:08:01.277Z,102164.63
2023-05-08T11:10:37.277Z,102152.81
2023-05-08T11:13:05.157Z,102152.56
2023-05-08T11:15:39.862Z,102147.97
2023-05-08T11:18:09.868Z,102165.94
2023-05-08T11:20:41.256Z,102157.41
2023-05-08T11:23:28.084Z,102148.34
2023-05-08T11:26:02.307Z,102158.81
2023-05-08T11:28:33.303Z,102153.06
2023-05-08T11:31:05.442Z,102168.13
2023-05-08T11:33:41.041Z,102142.19
2023-05-08T11:36:24.642Z,102135.94
2023-05-08T11:39:16.029Z,102142.53
2023-05-08T11:41:45.578Z,102146.56
2023-05-08T11:44:23.722Z,102149.31
2023-05-08T11:46:55.470Z,102133.88
2023-05-08T11:49:26.269Z,102144.59
2023-05-08T11:51:58.882Z,102135.81
2023-05-08T11:54:29.396Z,102126.00
2023-05-08T11:56:56.269Z,102133.84
2023-05-08T11:59:23.274Z,102129.75
2023-05-08T12:04:21.808Z,102120.44
2023-05-08T12:06:50.876Z,102128.56
2023-05-08T12:09:18.714Z,102128.47
2023-05-08T12:11:45.643Z,102126.38
2023-05-08T12:14:15.934Z,102119.53
2023-05-08T12:16:46.709Z,102116.97
2023-05-08T12:19:14.076Z,102115.66
2023-05-08T12:21:48.794Z,102105.97
2023-05-08T12:24:22.737Z,102111.41
2023-05-08T12:26:50.487Z,102111.75
2023-05-08T12:29:19.690Z,102112.00
2023-05-08T12:31:47.505Z,102121.91
2023-05-08T12:34:14.269Z,102108.47
2023-05-08T12:36:40.834Z,102109.34
2023-05-08T12:39:15.618Z,102101.09
2023-05-08T12:41:49.929Z,102106.88
2023-05-08T12:44:23.895Z,102109.69
2023-05-08T12:46:54.947Z,102110.06
2023-05-08T12:49:29.982Z,102104.56
2023-05-08T12:52:04.715Z,102113.00
2023-05-08T12:54:38.740Z,102104.56
2023-05-08T12:57:16.726Z,102103.69
2023-05-08T12:59:44.653Z,102092.81
2023-05-08T13:02:16.239Z,102106.59
2023-05-08T13:04:43.604Z,102105.00
2023-05-08T13:07:10.549Z,102095.00
2023-05-08T13:09:39.505Z,102104.09
2023-05-08T13:12:09.528Z,102081.72
2023-05-08T13:14:36.169Z,102084.47
2023-05-08T13:17:02.780Z,102082.84
2023-05-08T13:19:29.398Z,102086.63
2023-05-08T13:21:55.985Z,102074.88
2023-05-08T13:24:22.577Z,102070.97
2023-05-08T13:26:49.806Z,102069.91
2023-05-08T13:29:17.683Z,102059.44
2023-05-08T13:31:47.067Z,102063.78
2023-05-08T13:34:23.372Z,102061.72
2023-05-08T13:36:50.007Z,102056.59
2023-05-08T13:39:27.115Z,102054.72
2023-05-08T13:41:53.961Z,102057.06
2023-05-08T13:44:23.816Z,102048.06
2023-05-08T13:46:59.698Z,102048.34
2023-05-08T13:49:31.467Z,102037.47
2023-05-08T13:51:58.308Z,102042.09
2023-05-08T13:54:25.253Z,102040.47
2023-05-08T13:56:55.614Z,102032.03
2023-05-08T13:59:32.589Z,102021.16
2023-05-08T14:02:04.683Z,102023.59
2023-05-08T14:04:38.654Z,102030.69
2023-05-08T14:07:05.591Z,102010.91
2023-05-08T14:09:33.456Z,102020.03
2023-05-08T14:12:03.243Z,102012.94
2023-05-08T14:14:34.368Z,102019.59
2023-05-08T14:17:04.513Z,102020.38
2023-05-08T14:19:32.034Z,102017.25
2023-05-08T14:22:01.263Z,102018.84
2023-05-08T14:24:34.065Z,102014.81
2023-05-08T14:27:11.381Z,102005.84
2023-05-08T14:29:49.253Z,102012.06
2023-05-08T14:32:17.478Z,102004.00
2023-05-08T14:34:54.870Z,102014.84
2023-05-08T14:37:24.792Z,102004.22
2023-05-08T14:39:58.206Z,102003.19
2023-05-08T14:42:25.495Z,101995.16
2023-05-08T14:44:58.961Z,101997.41
2023-05-08T14:47:39.929Z,102006.06
2023-05-08T14:50:07.626Z,102008.25
2023-05-08T14:52:37.369Z,102003.59
2023-05-08T14:55:12.382Z,102004.31
2023-05-08T14:57:42.552Z,101994.84
2023-05-08T15:00:09.937Z,102005.84
2023-05-08T15:02:36.584Z,102006.63
2023-05-08T15:05:08.137Z,102003.84
2023-05-08T15:07:38.603Z,102007.59
2023-05-08T15:10:06.666Z,102000.59
2023-05-08T15:12:33.559Z,102004.34
2023-05-08T15:15:01.614Z,102000.22
2023-05-08T15:17:30.458Z,101998.91
2023-05-08T15:19:57.073Z,101989.63
2023-05-08T15:22:23.670Z,101989.53
2023-05-08T15:24:50.241Z,101993.34
2023-05-08T15:27:16.975Z,101996.13
2023-05-08T15:29:43.579Z,101995.03
2023-05-08T15:32:10.454Z,101994.50
2023-05-08T15:34:38.574Z,101996.19
2023-05-08T15:37:06.580Z,101991.84
2023-05-08T15:39:35.782Z,101996.00
2023-05-08T15:42:02.368Z,101993.25
2023-05-08T15:44:42.085Z,102001.00
2023-05-08T15:47:15.504Z,101987.91
2023-05-08T15:49:42.102Z,101982.28
2023-05-08T15:52:08.686Z,101985.38
2023-05-08T15:54:35.375Z,101989.28
2023-05-08T15:57:01.996Z,101978.72
2023-05-08T15:59:28.567Z,101991.94
2023-05-08T16:01:55.202Z,101992.66
2023-05-08T16:04:21.776Z,101991.03
2023-05-08T16:06:48.363Z,101987.94
2023-05-08T16:09:14.976Z,101985.56
2023-05-08T16:11:42.982Z,101977.00
2023-05-08T16:14:09.611Z,101979.97
2023-05-08T16:16:39.126Z,101978.53
2023-05-08T16:19:05.800Z,101969.19
2023-05-08T16:21:32.373Z,101963.25
2023-05-08T16:23:59.012Z,101975.19
2023-05-08T16:26:26.406Z,101968.47
2023-05-08T16:28:53.203Z,101961.25
2023-05-08T16:31:19.841Z,101971.22
2023-05-08T16:33:46.539Z,101969.00
2023-05-08T16:36:13.333Z,101963.84
2023-05-08T16:38:39.945Z,101967.06
2023-05-08T16:41:09.158Z,101961.91
2023-05-08T16:43:35.765Z,101955.97
2023-05-08T16:46:02.385Z,101969.13
2023-05-08T16:48:30.326Z,101962.41
2023-05-08T16:50:57.232Z,101966.06
2023-05-08T16:53:23.942Z,101951.50
2023-05-08T16:55:50.799Z,101965.22
2023-05-08T16:58:24.492Z,101959.84
2023-05-08T17:00:51.081Z,101958.75
2023-05-08T17:03:17.811Z,101962.16
2023-05-08T17:05:44.402Z,101961.69
2023-05-08T17:08:11.897Z,101945.19
2023-05-08T17:10:39.515Z,101944.34
2023-05-08T17:13:06.228Z,101937.34
2023-05-08T17:15:32.975Z,101940.00
2023-05-08T17:17:59.629Z,101940.97
2023-05-08T17:20:26.328Z,101945.81
2023-05-08T17:22:54.043Z,101944.78
2023-05-08T17:25:22.556Z,101943.00
2023-05-08T17:27:49.238Z,101955.19
2023-05-08T17:30:17.007Z,101959.03
2023-05-08T17:32:43.796Z,101959.31
2023-05-08T17:35:10.475Z,101955.16
2023-05-08T17:37:37.324Z,101956.97
2023-05-08T17:40:04.212Z,101942.53
2023-05-08T17:42:30.876Z,101945.78
2023-05-08T17:44:57.512Z,101953.59
2023-05-08T17:47:24.145Z,101945.19
2023-05-08T17:49:50.979Z,101963.38
2023-05-08T17:52:17.663Z,101955.53
2023-05-08T17:54:44.268Z,101957.63
2023-05-08T17:57:10.868Z,101958.66
2023-05-08T17:59:37.490Z,101961.88
2023-05-08T18:02:04.113Z,101960.06
2023-05-08T18:04:30.723Z,101965.53
2023-05-08T18:06:57.318Z,101961.88
2023-05-08T18:09:23.916Z,101961.13
2023-05-08T18:11:50.550Z,101962.56
2023-05-08T18:14:17.103Z,101959.75
2023-05-08T18:16:43.690Z,101960.88
2023-05-08T18:19:10.383Z,101957.00
2023-05-08T18:21:37.072Z,101960.97
2023-05-08T18:24:04.040Z,101969.75
2023-05-08T18:26:30.831Z,101962.66
2023-05-08T18:28:57.546Z,101965.41
2023-05-08T18:31:24.251Z,101971.63
2023-05-08T18:33:50.883Z,101963.66
2023-05-08T18:36:17.471Z,101970.91
2023-05-08T18:38:44.174Z,101976.97
2023-05-08T18:41:10.788Z,101975.72
2023-05-08T18:43:37.411Z,101970.81
2023-05-08T18:46:12.456Z,101972.66
2023-05-08T18:48:42.777Z,101980.50
2023-05-08T18:51:10.232Z,101971.19
2023-05-08T18:53:38.423Z,101973.28
2023-05-08T18:56:05.345Z,101980.50
2023-05-08T18:58:32.081Z,101983.53
2023-05-08T19:00:58.944Z,101982.19
2023-05-08T19:03:26.055Z,101972.97
2023-05-08T19:05:54.788Z,101983.03
2023-05-08T19:08:21.454Z,101980.47
2023-05-08T19:10:48.052Z,101984.59
2023-05-08T19:13:14.930Z,101982.91
2023-05-08T19:15:41.737Z,101991.31
2023-05-08T19:18:09.082Z,101987.53
2023-05-08T19:20:36.067Z,101980.78
2023-05-08T19:23:02.793Z,101977.63
2023-05-08T19:25:29.588Z,101984.91
2023-05-08T19:27:57.347Z,101983.31
2023-05-08T19:30:24.123Z,101984.22
2023-05-08T19:32:50.828Z,101983.44
2023-05-08T19:35:17.452Z,101986.16
2023-05-08T19:37:44.051Z,101985.56
2023-05-08T19:40:11.408Z,101988.47
2023-05-08T19:42:38.548Z,101990.56
2023-05-08T19:45:05.591Z,101989.13
2023-05-08T19:47:32.272Z,101980.16
2023-05-08T19:49:58.901Z,101977.53
2023-05-08T19:52:25.613Z,101982.00
2023-05-08T19:54:52.277Z,101980.63
2023-05-08T19:57:19.059Z,101979.56
2023-05-08T19:59:45.679Z,101984.63
2023-05-08T20:02:12.275Z,101986.03
2023-05-08T20:04:54.504Z,101985.47
2023-05-08T20:07:26.161Z,101979.84
2023-05-08T20:09:52.881Z,101990.41
2023-05-08T20:12:19.613Z,101983.56
2023-05-08T20:14:46.206Z,101980.25
2023-05-08T20:17:12.869Z,101984.88
2023-05-08T20:19:39.524Z,101982.03
2023-05-08T20:22:06.206Z,101976.88
2023-05-08T20:24:32.790Z,101984.38
2023-05-08T20:26:59.479Z,101980.78
2023-05-08T20:29:26.679Z,101991.38
2023-05-08T20:31:53.785Z,101986.53
2023-05-08T20:34:21.946Z,101988.66
2023-05-08T20:36:48.982Z,101991.28
2023-05-08T20:39:15.693Z,101987.88
2023-05-08T20:41:42.324Z,101983.50
2023-05-08T20:44:08.938Z,101981.78
2023-05-08T20:46:35.676Z,101973.56
2023-05-08T20:49:04.027Z,101982.75
2023-05-08T20:51:31.967Z,101990.59
2023-05-08T20:53:58.713Z,101993.69
2023-05-08T20:56:25.558Z,101992.59
2023-05-08T20:58:52.423Z,101991.34
2023-05-08T21:01:20.821Z,101992.56
2023-05-08T21:03:48.717Z,101987.44
2023-05-08T21:06:15.487Z,101999.06
2023-05-08T21:08:42.144Z,101977.94
2023-05-08T21:11:09.044Z,101982.09
2023-05-08T21:13:35.667Z,101986.00
2023-05-08T21:16:02.270Z,101985.81
2023-05-08T21:18:28.899Z,101989.06
2023-05-08T21:20:55.600Z,101981.81
2023-05-08T21:23:22.408Z,101977.19
2023-05-08T21:25:49.918Z,101963.53
2023-05-08T21:28:17.017Z,101972.69
2023-05-08T21:30:44.327Z,101964.72
2023-05-08T21:33:13.725Z,101969.31
2023-05-08T21:35:43.820Z,101965.94
2023-05-08T21:38:12.189Z,101963.69
2023-05-08T21:40:39.353Z,101961.53
2023-05-08T21:43:06.047Z,101960.38
2023-05-08T21:45:33.334Z,101965.78
2023-05-08T21:48:00.532Z,101971.16
2023-05-08T21:50:28.490Z,101969.69
2023-05-08T21:52:56.561Z,101960.75
2023-05-08T21:55:23.424Z,101963.06
2023-05-08T21:57:50.077Z,101969.91
2023-05-08T22:00:17.085Z,101962.88
2023-05-08T22:02:43.732Z,101965.38
2023-05-08T22:05:10.628Z,101966.84
2023-05-08T22:07:37.369Z,101956.41
2023-05-08T22:10:04.358Z,101948.19
2023-05-08T22:12:30.944Z,101956.94
2023-05-08T22:14:57.613Z,101956.16
2023-05-08T22:17:24.177Z,101954.72
2023-05-08T22:19:50.825Z,101946.16
2023-05-08T22:22:17.544Z,101944.56
2023-05-08T22:24:44.175Z,101943.06
2023-05-08T22:27:10.908Z,101940.66
2023-05-08T22:29:37.472Z,101937.53
2023-05-08T22:32:04.292Z,101933.09
2023-05-08T22:34:31.024Z,101936.69
2023-05-08T22:36:57.606Z,101935.22
2023-05-08T22:39:24.172Z,101925.84
2023-05-08T22:41:50.789Z,101926.00
2023-05-08T22:44:17.437Z,101928.75
2023-05-08T22:46:44.228Z,101920.97
2023-05-08T22:49:11.116Z,101922.06
2023-05-08T22:51:39.057Z,101920.97
2023-05-08T22:54:05.806Z,101922.00
2023-05-08T22:56:32.425Z,101913.63
2023-05-08T22:58:59.158Z,101911.00
2023-05-08T23:01:25.802Z,101904.66
2023-05-08T23:03:53.819Z,101907.53
2023-05-08T23:06:20.707Z,101911.03
2023-05-08T23:08:47.344Z,101908.28
2023-05-08T23:11:14.160Z,101909.72
2023-05-08T23:13:40.746Z,101911.56
2023-05-08T23:16:07.479Z,101906.34
2023-05-08T23:18:34.566Z,101904.47
2023-05-08T23:21:06.329Z,101898.97
2023-05-08T23:23:33.093Z,101890.63
2023-05-08T23:26:01.158Z,101885.72
2023-05-08T23:28:27.871Z,101882.91
2023-05-08T23:30:54.452Z,101888.19
2023-05-08T23:33:21.009Z,101886.28
2023-05-08T23:35:47.616Z,101883.28
2023-05-08T23:38:14.223Z,101873.81
2023-05-08T23:40:40.773Z,101875.22
2023-05-08T23:43:07.328Z,101870.66
2023-05-08T23:45:33.906Z,101867.13
2023-05-08T23:48:00.567Z,101867.84
2023-05-08T23:50:27.151Z,101870.22
2023-05-08T23:52:53.764Z,101867.03
2023-05-08T23:55:20.434Z,101862.72
2023-05-08T23:57:47.238Z,101858.31
